Time;durP1;ratioP1;P1;durP2;ratioP2;P2;SDS_P1;SDS_P2;PMS_P1;PMS_P2;Temp;Humidity;BMP_temperature;BMP_pressure;BME280_temperature;BME280_humidity;BME280_pressure;Samples;Min_cycle;Max_cycle;Signal;HPM_P1;HPM_P2
2023/03/01 00:01:05;;;;;;;16.53;10.30;;;;;;;1.86;65.17;101452.97;1475532;87;22620;-79
2023/03/01 00:03:32;;;;;;;21.00;11.43;;;;;;;1.83;65.25;101451.34;1471350;88;21631;-79
2023/03/01 00:05:58;;;;;;;19.90;11.23;;;;;;;1.81;65.14;101453.16;1458843;88;21665;-79
2023/03/01 00:08:26;;;;;;;16.30;10.67;;;;;;;1.79;65.31;101451.94;1473298;87;21699;-78
2023/03/01 00:11:11;;;;;;;21.13;11.30;;;;;;;1.82;65.45;101462.70;1471884;88;21396;-78
2023/03/01 00:13:38;;;;;;;17.53;10.00;;;;;;;1.82;65.53;101451.42;1471413;88;21605;-78
2023/03/01 00:16:08;;;;;;;17.27;9.90;;;;;;;1.70;65.65;101456.25;1474090;88;22680;-78
2023/03/01 00:18:34;;;;;;;19.47;11.60;;;;;;;1.68;65.84;101454.62;1482716;87;21641;-79
2023/03/01 00:21:01;;;;;;;17.60;11.90;;;;;;;1.65;65.85;101454.28;1466472;88;21419;-81
2023/03/01 00:23:27;;;;;;;20.93;11.40;;;;;;;1.68;65.82;101447.63;1472117;88;21684;-80
2023/03/01 00:25:54;;;;;;;22.27;12.47;;;;;;;1.68;66.23;101446.33;1472675;88;21609;-79
2023/03/01 00:28:21;;;;;;;20.57;10.90;;;;;;;1.61;65.67;101443.57;1472035;87;21593;-80
2023/03/01 00:30:48;;;;;;;28.60;12.40;;;;;;;1.58;65.79;101446.31;1463789;88;21608;-79
2023/03/01 00:33:14;;;;;;;22.00;11.93;;;;;;;1.49;65.85;101445.40;1472170;87;21419;-78
2023/03/01 00:35:40;;;;;;;19.63;12.00;;;;;;;1.54;65.86;101448.21;1470909;87;22572;-79
2023/03/01 00:38:07;;;;;;;17.67;9.63;;;;;;;1.48;65.95;101439.80;1477161;87;21818;-78
2023/03/01 00:40:35;;;;;;;19.17;10.87;;;;;;;1.49;65.88;101436.27;1465714;87;21522;-78
2023/03/01 00:43:03;;;;;;;19.77;11.30;;;;;;;1.50;65.79;101440.59;1480149;87;21744;-79
2023/03/01 00:45:31;;;;;;;17.93;10.97;;;;;;;1.52;66.05;101438.75;1469780;87;22580;-78
2023/03/01 00:47:57;;;;;;;19.77;11.43;;;;;;;1.48;65.73;101429.37;1474925;87;21778;-78
2023/03/01 00:50:25;;;;;;;21.93;11.90;;;;;;;1.46;66.03;101429.87;1472505;88;21670;-78
2023/03/01 00:52:55;;;;;;;19.73;12.07;;;;;;;1.46;65.88;101432.03;1471514;88;22643;-79
2023/03/01 00:55:23;;;;;;;22.60;12.90;;;;;;;1.45;65.90;101430.34;1478826;87;21732;-79
2023/03/01 00:57:50;;;;;;;16.30;10.90;;;;;;;1.50;65.87;101434.08;1468163;87;21308;-78
2023/03/01 01:00:17;;;;;;;19.30;10.73;;;;;;;1.48;65.90;101438.50;1483128;88;21764;-79
2023/03/01 01:02:44;;;;;;;19.23;11.73;;;;;;;1.45;66.19;101441.23;1469590;87;21836;-79
2023/03/01 01:05:10;;;;;;;22.63;13.40;;;;;;;1.48;66.21;101434.13;1480554;87;22563;-78
2023/03/01 01:07:37;;;;;;;23.20;13.83;;;;;;;1.54;65.91;101435.62;1471943;88;21791;-78
2023/03/01 01:10:04;;;;;;;23.70;12.27;;;;;;;1.54;66.14;101446.06;1471353;88;21656;-79
2023/03/01 01:12:31;;;;;;;21.67;11.93;;;;;;;1.57;65.87;101448.08;1473570;87;21652;-78
2023/03/01 01:14:57;;;;;;;20.27;12.67;;;;;;;1.59;65.72;101450.64;1467701;87;21739;-78
2023/03/01 01:17:23;;;;;;;18.43;12.27;;;;;;;1.58;65.65;101458.05;1480713;88;21595;-79
2023/03/01 01:19:49;;;;;;;21.67;12.20;;;;;;;1.56;65.73;101461.20;1478413;88;21425;-78
2023/03/01 01:22:16;;;;;;;24.50;13.83;;;;;;;1.53;66.31;101456.12;1472415;88;21729;-78
2023/03/01 01:24:42;;;;;;;20.47;11.77;;;;;;;1.49;66.25;101447.55;1467536;88;22597;-78
2023/03/01 01:27:08;;;;;;;22.23;12.63;;;;;;;1.48;66.22;101448.94;1471938;87;21745;-79
2023/03/01 01:29:34;;;;;;;20.87;12.37;;;;;;;1.47;66.13;101440.73;1465702;88;22133;-79
2023/03/01 01:32:01;;;;;;;22.90;12.93;;;;;;;1.36;66.32;101438.56;1473024;88;21486;-78
2023/03/01 01:34:27;;;;;;;19.03;11.87;;;;;;;1.33;66.43;101439.53;1468873;87;22586;-78
2023/03/01 01:36:54;;;;;;;24.53;14.57;;;;;;;1.30;66.64;101438.36;1467918;87;21670;-79
2023/03/01 01:39:21;;;;;;;22.40;13.43;;;;;;;1.29;66.56;101443.63;1464881;87;21520;-78
2023/03/01 01:41:48;;;;;;;24.10;11.83;;;;;;;1.29;66.41;101445.77;1478022;88;21627;-78
2023/03/01 01:44:26;;;;;;;22.70;13.33;;;;;;;1.26;66.69;101442.45;1474510;88;21810;-78
2023/03/01 01:47:02;;;;;;;22.87;13.17;;;;;;;1.30;66.76;101447.48;1468109;87;21763;-78
2023/03/01 01:49:48;;;;;;;22.10;12.70;;;;;;;1.27;66.78;101441.55;1463759;87;21663;-78
2023/03/01 01:52:29;;;;;;;22.33;11.87;;;;;;;1.27;66.69;101441.09;1474676;87;23229;-77
2023/03/01 01:55:04;;;;;;;21.75;11.53;;;;;;;1.25;66.77;101445.52;1468937;87;23012;-77
2023/03/01 01:57:41;;;;;;;21.13;12.40;;;;;;;1.24;67.10;101444.29;1475893;87;21434;-77
2023/03/01 02:00:16;;;;;;;24.07;12.37;;;;;;;1.22;66.67;101433.91;1470001;88;21710;-78
2023/03/01 02:02:44;;;;;;;23.70;14.53;;;;;;;1.22;66.77;101423.48;1471064;87;21736;-78
2023/03/01 02:05:48;;;;;;;23.47;13.13;;;;;;;1.21;66.61;101432.22;1477120;88;22599;-79
2023/03/01 02:08:17;;;;;;;22.73;13.03;;;;;;;1.23;66.74;101428.23;1464602;87;21737;-79
2023/03/01 02:10:44;;;;;;;20.53;13.13;;;;;;;1.22;66.35;101435.21;1472280;88;21636;-78
2023/03/01 02:13:13;;;;;;;24.40;14.47;;;;;;;1.17;66.54;101432.40;1467628;88;21738;-77
2023/03/01 02:15:43;;;;;;;23.67;12.50;;;;;;;1.21;66.50;101428.73;1472335;88;21608;-77
2023/03/01 02:18:12;;;;;;;25.97;12.40;;;;;;;1.18;66.32;101431.05;1473817;87;21620;-78
2023/03/01 02:20:49;;;;;;;24.63;13.10;;;;;;;1.23;66.24;101432.14;1472830;87;22892;-79
2023/03/01 02:23:16;;;;;;;23.17;13.13;;;;;;;1.23;66.19;101419.95;1469435;87;21662;-79
2023/03/01 02:26:04;;;;;;;23.50;13.70;;;;;;;1.27;66.56;101418.92;1471195;88;21842;-78
2023/03/01 02:28:34;;;;;;;27.17;14.03;;;;;;;1.30;66.17;101423.17;1475193;88;21785;-76
2023/03/01 02:33:51;;;;;;;20.10;12.10;;;;;;;1.32;66.34;101419.59;1464867;87;21735;-78
2023/03/01 02:36:37;;;;;;;23.98;12.15;;;;;;;1.34;66.17;101424.72;1474600;87;21501;-78
2023/03/01 02:39:14;;;;;;;22.53;13.17;;;;;;;1.33;66.44;101414.75;1472086;88;21640;-77
2023/03/01 02:41:39;;;;;;;21.20;12.10;;;;;;;1.33;66.65;101414.75;1469552;88;21731;-76
2023/03/01 02:44:08;;;;;;;21.70;13.67;;;;;;;1.29;66.53;101405.34;1471834;88;21671;-78
2023/03/01 02:46:36;;;;;;;19.20;12.37;;;;;;;1.29;66.41;101406.64;1471163;87;21728;-78
2023/03/01 02:49:04;;;;;;;23.60;13.53;;;;;;;1.29;66.61;101411.86;1469194;88;21586;-75
2023/03/01 02:51:54;;;;;;;23.57;13.40;;;;;;;1.32;66.42;101411.77;1471034;87;21697;-78
2023/03/01 02:54:35;;;;;;;24.77;12.80;;;;;;;1.33;66.48;101414.75;1480211;88;22771;-78
2023/03/01 02:57:02;;;;;;;20.32;10.13;;;;;;;1.27;66.28;101411.09;1470386;88;21722;-79
2023/03/01 02:59:38;;;;;;;18.80;11.00;;;;;;;1.25;66.16;101410.30;1472809;88;21339;-78
2023/03/01 03:02:01;;;;;;;22.03;12.50;;;;;;;1.22;66.41;101414.81;1467576;88;21729;-78
2023/03/01 03:04:28;;;;;;;19.43;12.13;;;;;;;1.16;66.61;101413.30;1473812;88;22522;-79
2023/03/01 03:06:54;;;;;;;23.53;12.83;;;;;;;1.10;66.84;101422.22;1473289;87;22660;-78
2023/03/01 03:09:20;;;;;;;20.23;12.47;;;;;;;1.08;66.73;101417.52;1465552;88;21601;-78
2023/03/01 03:11:47;;;;;;;22.03;12.77;;;;;;;1.11;67.13;101419.16;1470557;88;21663;-78
2023/03/01 03:14:16;;;;;;;19.87;10.57;;;;;;;1.04;67.08;101415.95;1465961;88;21646;-78
2023/03/01 03:16:47;;;;;;;23.03;11.63;;;;;;;1.02;67.10;101418.23;1471458;88;21617;-78
2023/03/01 03:19:14;;;;;;;23.10;11.97;;;;;;;0.93;67.37;101413.39;1485202;87;21610;-79
2023/03/01 03:21:41;;;;;;;18.67;10.60;;;;;;;0.93;67.43;101416.00;1472354;87;21361;-77
2023/03/01 03:24:10;;;;;;;14.50;10.17;;;;;;;0.91;67.58;101410.83;1424149;87;22042;-77
2023/03/01 03:29:14;;;;;;;17.93;10.67;;;;;;;0.94;67.94;101411.17;1521359;85;23513;-77
2023/03/01 03:31:41;;;;;;;17.90;11.13;;;;;;;0.81;67.71;101406.92;1513520;86;21771;-77
2023/03/01 03:34:07;;;;;;;19.10;10.33;;;;;;;0.78;67.78;101411.80;1502922;86;21824;-76
2023/03/01 03:36:33;;;;;;;16.43;9.20;;;;;;;0.71;68.01;101409.02;1485795;86;21883;-76
2023/03/01 03:38:59;;;;;;;17.93;10.00;;;;;;;0.78;68.01;101408.34;1484257;86;21536;-77
2023/03/01 03:41:26;;;;;;;17.30;10.03;;;;;;;0.79;68.07;101406.13;1466262;89;22554;-77
2023/03/01 03:43:52;;;;;;;17.87;10.40;;;;;;;0.71;67.96;101410.78;1444431;89;21654;-76
2023/03/01 03:46:20;;;;;;;20.50;12.90;;;;;;;0.77;68.17;101411.38;1444214;89;21644;-76
2023/03/01 03:48:49;;;;;;;18.30;9.73;;;;;;;0.78;68.17;101409.19;1385599;89;21874;-76
2023/03/01 03:51:18;;;;;;;20.33;11.07;;;;;;;0.83;68.24;101403.31;1378127;89;21703;-75
2023/03/01 03:53:45;;;;;;;16.67;11.37;;;;;;;0.83;67.88;101402.01;1372336;90;21535;-75
2023/03/01 03:56:12;;;;;;;16.13;10.07;;;;;;;0.84;68.03;101404.19;1374109;90;21653;-75
2023/03/01 03:58:38;;;;;;;14.47;9.67;;;;;;;0.85;67.92;101406.72;1538467;89;21542;-76
2023/03/01 04:01:05;;;;;;;15.60;9.13;;;;;;;0.88;67.86;101409.20;1387468;89;21772;-76
2023/03/01 04:03:32;;;;;;;17.27;10.63;;;;;;;0.90;67.88;101414.36;1384974;89;22494;-77
2023/03/01 04:06:00;;;;;;;16.27;10.30;;;;;;;0.93;67.84;101418.61;1358695;91;21684;-76
2023/03/01 04:08:27;;;;;;;18.53;10.83;;;;;;;0.90;67.76;101422.19;1383275;89;21642;-76
2023/03/01 04:11:25;;;;;;;17.77;10.17;;;;;;;0.97;67.70;101422.77;1377811;91;21809;-75
2023/03/01 04:13:31;;;;;;;17.53;10.43;;;;;;;0.96;67.81;101425.00;1425857;88;21648;-76
2023/03/01 04:15:58;;;;;;;20.03;11.27;;;;;;;1.01;67.76;101418.69;1404457;88;21799;-76
2023/03/01 04:18:25;;;;;;;15.13;9.67;;;;;;;1.00;67.89;101413.06;1404152;88;21573;-76
2023/03/01 04:20:55;;;;;;;20.97;11.73;;;;;;;0.96;67.98;101415.88;1403300;88;21571;-76
2023/03/01 04:23:21;;;;;;;19.17;11.23;;;;;;;0.94;67.95;101415.08;1508554;89;21712;-76
2023/03/01 04:25:57;;;;;;;18.50;11.43;;;;;;;0.94;68.02;101413.31;1360056;90;21732;-76
2023/03/01 04:28:32;;;;;;;19.00;10.33;;;;;;;0.96;68.21;101414.57;1454110;89;22589;-77
2023/03/01 04:31:00;;;;;;;17.20;9.87;;;;;;;0.89;68.26;101415.25;1570356;87;21516;-78
2023/03/01 04:33:26;;;;;;;15.53;10.47;;;;;;;0.85;68.48;101404.56;1396321;88;21568;-77
2023/03/01 04:35:52;;;;;;;16.83;10.13;;;;;;;0.82;68.59;101413.81;1558340;87;21508;-75
2023/03/01 04:38:20;;;;;;;21.57;12.80;;;;;;;0.81;68.84;101412.13;1419884;87;21429;-75
2023/03/01 04:40:47;;;;;;;31.67;14.70;;;;;;;0.82;68.57;101408.14;1396023;88;21563;-75
2023/03/01 04:43:17;;;;;;;42.50;16.67;;;;;;;0.74;68.97;101408.90;1397633;88;21699;-76
2023/03/01 04:45:44;;;;;;;40.23;17.37;;;;;;;0.76;69.00;101411.00;1399858;88;21681;-75
2023/03/01 04:48:10;;;;;;;20.93;9.97;;;;;;;0.80;69.09;101409.95;1415315;87;21691;-76
2023/03/01 04:50:36;;;;;;;77.90;28.80;;;;;;;0.75;68.69;101409.74;1508650;90;22359;-78
2023/03/01 04:53:02;;;;;;;20.57;12.27;;;;;;;0.79;68.66;101406.13;1384007;89;21617;-77
2023/03/01 04:55:29;;;;;;;16.77;9.63;;;;;;;0.74;68.66;101402.38;1413932;87;21529;-75
2023/03/01 04:57:55;;;;;;;16.07;9.63;;;;;;;0.71;68.66;101400.36;1398581;87;21515;-76
2023/03/01 05:00:22;;;;;;;24.37;11.47;;;;;;;0.74;68.84;101398.47;1414109;87;21703;-77
2023/03/01 05:02:53;;;;;;;17.77;10.33;;;;;;;0.78;68.65;101392.25;1408915;88;21674;-77
2023/03/01 05:05:32;;;;;;;14.55;8.58;;;;;;;0.79;68.75;101396.54;1348567;91;21635;-77
2023/03/01 05:08:04;;;;;;;17.80;9.77;;;;;;;0.70;68.76;101399.52;1391240;90;21345;-76
2023/03/01 05:10:31;;;;;;;;;;;;;;;0.73;68.66;101399.39;1521402;90;21535;-76
2023/03/01 05:12:58;;;;;;;20.93;10.23;;;;;;;0.68;68.63;101394.81;1364140;91;20800;-77
2023/03/01 05:15:27;;;;;;;15.90;10.03;;;;;;;0.71;68.89;101392.55;1357565;90;21586;-76
2023/03/01 05:17:58;;;;;;;17.43;9.80;;;;;;;0.71;68.87;101395.15;1394603;88;21684;-77
2023/03/01 05:20:26;;;;;;;;;;;;;;;0.72;68.75;101397.71;1556116;87;21729;-77
2023/03/01 05:22:58;;;;;;;16.30;9.73;;;;;;;0.71;68.89;101405.11;1397129;88;20247;-76
2023/03/01 05:25:26;;;;;;;15.80;10.13;;;;;;;0.77;68.74;101408.77;1542009;87;21618;-76
2023/03/01 05:27:52;;;;;;;15.23;9.03;;;;;;;0.82;68.80;101415.96;1412569;87;21559;-77
2023/03/01 05:30:19;;;;;;;16.23;9.73;;;;;;;0.80;68.41;101411.72;1544153;86;21863;-78
2023/03/01 05:32:48;;;;;;;18.37;10.43;;;;;;;0.81;68.69;101414.28;1567921;86;21531;-79
2023/03/01 05:35:17;;;;;;;14.27;8.70;;;;;;;0.80;68.62;101417.77;1401405;88;21396;-80
2023/03/01 05:37:47;;;;;;;15.73;9.57;;;;;;;0.79;68.44;101416.09;1370734;90;21397;-79
2023/03/01 05:40:20;;;;;;;17.90;9.33;;;;;;;0.73;68.52;101415.03;1398419;90;22640;-79
2023/03/01 05:42:51;;;;;;;14.73;10.17;;;;;;;0.74;68.34;101425.84;1534616;89;21694;-80
2023/03/01 05:45:18;;;;;;;13.15;8.40;;;;;;;0.81;68.59;101422.55;1559190;86;21559;-79
2023/03/01 05:47:46;;;;;;;14.67;8.87;;;;;;;0.84;68.12;101425.88;1418282;88;21367;-79
2023/03/01 05:50:20;;;;;;;17.67;10.00;;;;;;;0.88;68.21;101429.20;1378148;89;21678;-82
2023/03/01 05:52:53;;;;;;;16.83;8.97;;;;;;;0.90;67.85;101425.63;1540920;86;21705;-78
2023/03/01 05:55:21;;;;;;;16.80;9.30;;;;;;;0.83;67.97;101424.16;1420195;88;21681;-82
2023/03/01 05:57:49;;;;;;;16.37;9.67;;;;;;;0.83;67.96;101422.02;1422058;86;22486;-78
2023/03/01 06:00:19;;;;;;;19.00;10.73;;;;;;;0.85;68.30;101424.96;1422111;86;21708;-75
2023/03/01 06:02:45;;;;;;;17.90;10.10;;;;;;;0.94;69.78;101421.14;1376960;89;21609;-75
2023/03/01 06:05:14;;;;;;;24.03;13.80;;;;;;;1.10;70.30;101423.98;1423148;86;21476;-74
2023/03/01 06:07:41;;;;;;;22.13;12.67;;;;;;;1.24;71.75;101421.66;1420080;86;22554;-75
2023/03/01 06:10:10;;;;;;;18.00;10.93;;;;;;;1.34;69.31;101422.11;1385371;89;21684;-74
2023/03/01 06:12:38;;;;;;;12.53;8.03;;;;;;;1.33;69.29;101421.27;1421148;86;21543;-74
2023/03/01 06:15:07;;;;;;;17.33;10.73;;;;;;;1.43;67.77;101416.97;1420902;86;21593;-79
2023/03/01 06:17:37;;;;;;;17.23;9.33;;;;;;;1.55;67.48;101412.52;1588211;86;21677;-79
2023/03/01 06:20:09;;;;;;;16.67;9.05;;;;;;;1.53;66.44;101414.38;1536836;89;21717;-78
2023/03/01 06:22:36;;;;;;;18.47;8.60;;;;;;;1.47;65.76;101413.33;1560466;88;21339;-78
2023/03/01 06:25:03;;;;;;;16.60;9.30;;;;;;;1.46;65.84;101413.77;1423207;86;21609;-78
2023/03/01 06:27:29;;;;;;;13.23;7.77;;;;;;;1.40;65.50;101411.88;1428738;86;21658;-78
2023/03/01 06:29:55;;;;;;;19.53;10.20;;;;;;;1.28;65.39;101409.33;1399895;88;22524;-78
2023/03/01 06:32:21;;;;;;;14.87;8.53;;;;;;;1.27;65.69;101411.56;1560466;86;21653;-78
2023/03/01 06:34:47;;;;;;;13.20;7.73;;;;;;;1.19;65.61;101404.05;1381958;89;21890;-78
2023/03/01 06:37:13;;;;;;;13.00;8.10;;;;;;;1.27;65.76;101403.27;1414080;87;21475;-78
2023/03/01 06:39:40;;;;;;;15.63;8.67;;;;;;;1.27;65.76;101403.27;1413727;87;22892;-78
2023/03/01 06:42:09;;;;;;;14.43;9.10;;;;;;;1.26;65.47;101406.77;1413922;87;21644;-79
2023/03/01 06:44:36;;;;;;;26.13;14.23;;;;;;;1.26;65.71;101402.86;1398729;89;21679;-77
2023/03/01 06:47:03;;;;;;;20.17;9.23;;;;;;;1.34;66.11;101400.78;1362813;91;21543;-78
2023/03/01 06:49:30;;;;;;;20.17;11.37;;;;;;;1.34;65.10;101403.86;1413300;87;22333;-78
2023/03/01 06:51:57;;;;;;;21.90;11.97;;;;;;;1.44;65.16;101405.61;1413659;87;21655;-80
2023/03/01 06:54:23;;;;;;;18.50;8.70;;;;;;;1.52;65.34;101412.66;1362705;91;22450;-77
2023/03/01 06:56:50;;;;;;;18.30;7.87;;;;;;;1.55;64.55;101409.48;1413090;87;21573;-78
2023/03/01 06:59:17;;;;;;;12.83;8.33;;;;;;;1.63;64.51;101409.13;1413676;87;21512;-78
2023/03/01 07:01:44;;;;;;;16.43;9.93;;;;;;;1.56;64.02;101411.63;1418923;87;21635;-77
2023/03/01 07:04:12;;;;;;;17.87;9.83;;;;;;;1.57;64.20;101406.79;1577985;87;21527;-78
2023/03/01 07:06:38;;;;;;;11.17;7.07;;;;;;;1.64;63.92;101410.84;1553205;87;21764;-78
2023/03/01 07:09:05;;;;;;;20.10;10.30;;;;;;;1.57;63.79;101408.94;1413454;87;21631;-78
2023/03/01 07:11:31;;;;;;;21.17;12.10;;;;;;;1.71;64.30;101402.28;1419652;87;21555;-78
2023/03/01 07:13:58;;;;;;;15.67;8.77;;;;;;;1.79;63.80;101402.34;1413697;87;22394;-78
2023/03/01 07:16:24;;;;;;;12.50;8.57;;;;;;;1.89;63.92;101398.01;1413301;87;21615;-78
2023/03/01 07:18:50;;;;;;;15.03;9.10;;;;;;;1.98;63.67;101398.44;1413796;87;21814;-78
2023/03/01 07:21:16;;;;;;;13.23;7.70;;;;;;;2.03;63.33;101391.25;1414166;87;22998;-79
2023/03/01 07:23:42;;;;;;;12.63;6.77;;;;;;;1.94;62.99;101397.36;1414216;87;22500;-79
2023/03/01 07:26:09;;;;;;;13.37;8.87;;;;;;;1.84;63.12;101389.53;1413630;87;21657;-79
2023/03/01 07:28:38;;;;;;;14.17;9.20;;;;;;;1.93;63.15;101389.14;1419613;87;21731;-79
2023/03/01 07:31:04;;;;;;;15.60;9.93;;;;;;;2.08;63.11;101391.52;1417239;87;21786;-77
2023/03/01 07:33:32;;;;;;;17.87;10.73;;;;;;;2.19;63.01;101386.19;1577854;87;21827;-78
2023/03/01 07:36:00;;;;;;;16.77;6.80;;;;;;;2.15;62.33;101384.62;1366790;91;21724;-80
2023/03/01 07:38:28;;;;;;;11.53;7.10;;;;;;;2.03;62.06;101382.58;1411589;87;21630;-78
2023/03/01 07:41:01;;;;;;;11.50;7.33;;;;;;;2.18;62.22;101383.63;1361353;91;22654;-79
2023/03/01 07:43:29;;;;;;;10.13;6.17;;;;;;;2.25;62.02;101385.06;1578032;87;21714;-78
2023/03/01 07:46:01;;;;;;;11.27;7.00;;;;;;;2.12;62.04;101382.15;1411213;87;21573;-81
2023/03/01 07:48:28;;;;;;;9.67;6.27;;;;;;;2.27;61.78;101370.14;1429018;91;21577;-80
2023/03/01 07:50:56;;;;;;;10.90;6.30;;;;;;;2.27;61.78;101370.14;1515556;91;21726;-80
2023/03/01 07:53:23;;;;;;;12.27;7.17;;;;;;;2.50;61.67;101370.37;1379959;89;22495;-82
2023/03/01 07:55:49;;;;;;;9.13;5.80;;;;;;;2.77;60.67;101371.30;1419539;87;21728;-81
2023/03/01 07:58:15;;;;;;;10.67;7.07;;;;;;;3.05;60.53;101370.77;1414635;87;21778;-79
2023/03/01 08:00:41;;;;;;;13.87;7.17;;;;;;;3.13;60.79;101368.63;1414144;87;21746;-81
2023/03/01 08:03:07;;;;;;;10.77;7.07;;;;;;;3.13;60.79;101368.63;1388062;89;22772;-79
2023/03/01 08:05:33;;;;;;;11.50;7.17;;;;;;;3.15;59.52;101370.23;1414055;87;21879;-81
2023/03/01 08:07:59;;;;;;;10.00;5.90;;;;;;;3.23;59.15;101376.41;1382221;89;21923;-80
2023/03/01 08:10:26;;;;;;;9.43;6.63;;;;;;;3.23;59.15;101376.41;1419312;87;22805;-81
2023/03/01 08:12:52;;;;;;;12.20;7.90;;;;;;;3.43;59.36;101368.02;1578052;87;22164;-83
2023/03/01 08:15:19;;;;;;;15.53;8.03;;;;;;;3.43;59.36;101368.02;1413497;87;22027;-80
2023/03/01 08:17:45;;;;;;;14.63;7.30;;;;;;;3.50;58.34;101370.21;1414254;87;22231;-80
2023/03/01 08:20:12;;;;;;;11.03;6.73;;;;;;;3.59;58.50;101384.12;1414218;87;22285;-79
2023/03/01 08:22:39;;;;;;;8.97;5.97;;;;;;;3.74;58.41;101384.26;1412619;87;22868;-80
2023/03/01 08:25:06;;;;;;;10.27;6.00;;;;;;;3.81;57.66;101379.09;1413835;87;22332;-81
2023/03/01 08:27:32;;;;;;;10.17;6.47;;;;;;;3.86;57.60;101371.85;1419443;87;22280;-80
2023/03/01 08:29:58;;;;;;;10.10;6.60;;;;;;;4.06;58.12;101380.80;1413359;87;22194;-79
2023/03/01 08:32:27;;;;;;;12.03;6.70;;;;;;;4.24;57.63;101382.04;1415639;87;23135;-81
2023/03/01 08:34:53;;;;;;;11.27;6.00;;;;;;;4.31;56.28;101375.52;1419863;87;22054;-82
2023/03/01 08:37:19;;;;;;;10.77;6.43;;;;;;;4.49;56.95;101360.58;1363484;90;22134;-80
2023/03/01 08:39:47;;;;;;;9.97;6.87;;;;;;;4.60;56.38;101358.64;1413839;87;22261;-81
2023/03/01 08:42:13;;;;;;;12.30;6.60;;;;;;;4.77;56.61;101353.75;1417833;87;22142;-80
2023/03/01 08:44:39;;;;;;;21.00;12.10;;;;;;;5.03;57.09;101344.81;1577961;87;22093;-81
2023/03/01 08:47:05;;;;;;;62.33;32.70;;;;;;;5.25;55.66;101344.81;1397012;88;21427;-82
2023/03/01 08:49:32;;;;;;;30.17;17.10;;;;;;;5.40;56.28;101345.20;1365562;91;21443;-79
2023/03/01 08:51:59;;;;;;;22.77;12.87;;;;;;;5.47;55.24;101349.64;1410929;87;22263;-81
2023/03/01 08:54:25;;;;;;;40.80;23.00;;;;;;;5.58;54.55;101349.84;1364034;91;21531;-80
2023/03/01 08:56:51;;;;;;;38.63;20.57;;;;;;;5.75;54.86;101349.27;1414226;87;21302;-78
2023/03/01 08:59:18;;;;;;;11.83;7.77;;;;;;;5.93;54.65;101345.95;1363845;90;22190;-78
2023/03/01 09:01:46;;;;;;;10.97;7.30;;;;;;;5.94;53.43;101347.70;1576751;87;21316;-77
2023/03/01 09:04:14;;;;;;;11.97;6.83;;;;;;;5.73;52.89;101341.49;1413717;87;21331;-81
2023/03/01 09:06:41;;;;;;;10.57;7.13;;;;;;;5.92;53.64;101340.34;1417736;87;21511;-81
2023/03/01 09:09:15;;;;;;;12.00;8.37;;;;;;;5.89;52.80;101338.27;1413156;87;21492;-79
2023/03/01 09:11:43;;;;;;;20.73;11.67;;;;;;;5.96;53.04;101334.84;1578002;87;21324;-80
2023/03/01 09:14:09;;;;;;;10.03;6.43;;;;;;;6.07;53.39;101332.84;1367498;91;21530;-80
2023/03/01 09:16:35;;;;;;;12.63;8.33;;;;;;;6.08;52.55;101332.75;1413841;87;21434;-81
2023/03/01 09:19:03;;;;;;;13.90;7.57;;;;;;;6.40;53.69;101331.18;1382421;89;21369;-80
2023/03/01 09:21:29;;;;;;;11.93;8.10;;;;;;;6.33;52.03;101327.27;1400233;87;21323;-79
2023/03/01 09:23:57;;;;;;;24.20;13.37;;;;;;;6.62;52.55;101320.12;1538735;89;22167;-80
2023/03/01 09:26:24;;;;;;;12.30;7.23;;;;;;;6.91;53.74;101318.67;1412559;87;21420;-80
2023/03/01 09:28:53;;;;;;;50.57;15.60;;;;;;;7.18;50.52;101319.44;1413201;87;21404;-80
2023/03/01 09:31:22;;;;;;;11.60;7.17;;;;;;;7.51;52.68;101315.46;1410341;87;22174;-81
2023/03/01 09:33:51;;;;;;;16.03;8.33;;;;;;;7.35;50.39;101317.45;1410920;86;21427;-80
2023/03/01 09:36:20;;;;;;;37.67;22.47;;;;;;;7.75;50.48;101308.11;1410777;87;21445;-81
2023/03/01 09:38:48;;;;;;;21.60;12.67;;;;;;;8.47;50.06;101306.44;1366033;91;22204;-82
2023/03/01 09:41:38;;;;;;;12.20;7.87;;;;;;;8.73;47.14;101298.39;1413432;87;21367;-80
2023/03/01 09:48:44;;;;;;;20.70;13.53;;;;;;;8.75;45.27;101298.65;1486834;92;21350;-86
2023/03/01 09:51:15;;;;;;;25.97;14.80;;;;;;;10.39;45.78;101287.17;1389076;92;22252;-80
2023/03/01 09:53:42;;;;;;;24.87;15.43;;;;;;;10.70;40.85;101283.30;1347790;92;22430;-81
2023/03/01 09:56:39;;;;;;;16.77;10.97;;;;;;;11.39;42.71;101289.88;1344570;92;22223;-80
2023/03/01 09:59:22;;;;;;;9.33;7.23;;;;;;;11.57;40.92;101279.03;1493601;92;21350;-82
2023/03/01 10:02:03;;;;;;;8.43;6.10;;;;;;;11.93;42.69;101275.47;1487363;92;21371;-83
2023/03/01 10:04:49;;;;;;;8.78;5.95;;;;;;;11.71;38.76;101273.36;1415953;92;21549;-83
2023/03/01 10:07:29;;;;;;;8.13;6.17;;;;;;;11.74;38.13;101268.28;1487758;92;21305;-81
2023/03/01 10:09:56;;;;;;;9.23;4.97;;;;;;;11.90;39.93;101267.30;1350367;92;21454;-82
2023/03/01 10:12:29;;;;;;;12.90;7.57;;;;;;;11.87;38.51;101249.49;1490843;92;21350;-83
2023/03/01 10:15:11;;;;;;;10.67;7.43;;;;;;;11.89;40.68;101251.03;1492171;92;21433;-83
2023/03/01 10:17:48;;;;;;;13.90;8.60;;;;;;;12.46;40.90;101258.35;1426139;92;21609;-81
2023/03/01 10:20:25;;;;;;;14.60;6.53;;;;;;;12.86;40.78;101250.25;1492932;92;21358;-82
2023/03/01 10:22:52;;;;;;;8.17;5.97;;;;;;;12.58;37.66;101252.78;1494549;87;21479;-85
2023/03/01 10:25:54;;;;;;;5.77;4.87;;;;;;;12.01;38.07;101246.45;1418674;87;21323;-86
2023/03/01 10:28:29;;;;;;;11.67;8.40;;;;;;;11.61;38.24;101244.63;1420472;87;21367;-93
2023/03/01 10:30:59;;;;;;;10.17;7.70;;;;;;;12.14;40.75;101232.45;1516498;91;21603;-92
2023/03/01 10:33:32;;;;;;;9.68;6.00;;;;;;;12.80;40.49;101227.75;1416100;86;21404;-90
2023/03/01 10:35:59;;;;;;;9.57;7.33;;;;;;;12.40;38.62;101218.63;1516124;91;21435;-93
2023/03/01 10:38:25;;;;;;;11.37;8.07;;;;;;;12.16;38.39;101218.53;1382832;89;21501;-91
2023/03/01 10:41:06;;;;;;;11.33;7.07;;;;;;;12.99;40.06;101220.70;1401702;88;21464;-88
2023/03/01 10:43:53;;;;;;;10.13;7.23;;;;;;;12.22;38.38;101218.95;1577921;87;21316;-87
2023/03/01 10:46:36;;;;;;;14.30;8.27;;;;;;;13.09;40.24;101209.07;1411541;89;21523;-86
2023/03/01 10:49:22;;;;;;;8.83;6.37;;;;;;;13.43;38.62;101206.36;1415308;87;21570;-84
2023/03/01 10:51:52;;;;;;;8.30;6.63;;;;;;;13.22;37.97;101204.74;1516191;90;21509;-86
2023/03/01 10:54:32;;;;;;;9.00;7.03;;;;;;;12.11;37.67;101211.95;1410192;87;21316;-86
2023/03/01 10:57:01;;;;;;;11.40;6.92;;;;;;;12.38;38.41;101201.50;1510218;90;22419;-87
2023/03/01 10:59:37;;;;;;;13.37;7.63;;;;;;;12.45;39.25;101193.80;1412900;87;21339;-86
2023/03/01 11:02:20;;;;;;;11.30;8.07;;;;;;;13.00;40.07;101187.82;1384219;89;21611;-86
2023/03/01 11:08:48;;;;;;;10.50;8.00;;;;;;;13.10;39.02;101189.47;1472440;87;21390;-83
2023/03/01 11:11:23;;;;;;;12.47;8.88;;;;;;;13.69;37.87;101187.89;1415649;87;21420;-81
2023/03/01 11:14:00;;;;;;;8.90;7.17;;;;;;;14.00;38.35;101184.39;1515597;90;21532;-80
2023/03/01 11:16:34;;;;;;;13.53;7.57;;;;;;;14.36;38.40;101181.23;1577890;87;21331;-81
2023/03/01 11:19:12;;;;;;;15.27;7.87;;;;;;;13.50;35.98;101177.72;1549810;87;21302;-81
2023/03/01 11:21:52;;;;;;;21.63;13.40;;;;;;;13.69;37.48;101171.92;1578075;87;22335;-80
2023/03/01 11:24:19;;;;;;;7.87;6.25;;;;;;;13.99;36.04;101162.27;1533749;87;21512;-81
2023/03/01 11:26:54;;;;;;;7.53;6.00;;;;;;;13.34;35.62;101158.07;1412938;87;22189;-81
2023/03/01 11:29:41;;;;;;;8.63;6.83;;;;;;;12.76;35.74;101163.91;1432505;87;21368;-81
2023/03/01 11:32:11;;;;;;;12.23;8.43;;;;;;;12.88;36.58;101156.11;1501356;89;21427;-81
2023/03/01 11:34:45;;;;;;;13.45;7.92;;;;;;;13.30;37.89;101158.86;1583910;86;21404;-83
2023/03/01 11:37:43;;;;;;;10.17;7.60;;;;;;;13.88;38.33;101157.17;1419829;89;21360;-80
2023/03/01 11:40:29;;;;;;;12.53;6.83;;;;;;;14.15;35.56;101154.08;1589504;86;21530;-79
2023/03/01 11:43:06;;;;;;;11.13;6.67;;;;;;;13.25;35.29;101154.44;1590256;86;22296;-82
2023/03/01 11:45:56;;;;;;;8.60;7.20;;;;;;;12.42;36.53;101151.61;1422143;88;21360;-81
2023/03/01 11:48:30;;;;;;;8.43;6.33;;;;;;;12.71;37.78;101146.23;1482862;86;21354;-81